Time;durP1;ratioP1;P1;durP2;ratioP2;P2;SDS_P1;SDS_P2;PMS_P1;PMS_P2;Temp;Humidity;BMP_temperature;BMP_pressure;BME280_temperature;BME280_humidity;BME280_pressure;Samples;Min_cycle;Max_cycle;Signal;HPM_P1;HPM_P2
2022/05/30 00:04:53;;;;;;;;;;;;;;;8.51;56.05957;101490.1;;;;-82
2022/05/30 00:09:52;;;;;;;;;;;;;;;8.41;56.20215;101487;;;;-83
2022/05/30 00:14:50;;;;;;;;;;;;;;;8.34;56.15918;101481.8;;;;-84
2022/05/30 00:19:50;;;;;;;;;;;;;;;8.29;56.37402;101481.8;;;;-81
2022/05/30 00:24:51;;;;;;;;;;;;;;;8.18;56.53711;101477;;;;-81
2022/05/30 00:25:08;;;;;;;4.5;0.8;;;;;;;;;;;;;-82
2022/05/30 00:29:51;;;;;;;;;;;;;;;8.13;56.49805;101479.5;;;;-82
2022/05/30 00:34:51;;;;;;;;;;;;;;;8.1;56.59375;101479.3;;;;-82
2022/05/30 00:39:51;;;;;;;;;;;;;;;8.05;56.55469;101472.3;;;;-84
2022/05/30 00:44:52;;;;;;;;;;;;;;;8;56.53516;101467.8;;;;-83
2022/05/30 00:49:51;;;;;;;;;;;;;;;7.92;56.61426;101459;;;;-82
2022/05/30 00:54:54;;;;;;;;;;;;;;;7.89;56.62109;101454.1;;;;-81
2022/05/30 00:55:10;;;;;;;2.8;0.9;;;;;;;;;;;;;-82
2022/05/30 00:59:51;;;;;;;;;;;;;;;7.79;56.74219;101449;;;;-83
2022/05/30 01:09:54;;;;;;;;;;;;;;;7.65;56.76855;101453.4;;;;-80
2022/05/30 01:14:50;;;;;;;;;;;;;;;7.59;56.80371;101454.9;;;;-84
2022/05/30 01:20:02;;;;;;;;;;;;;;;7.53;56.81836;101458.4;;;;-82
2022/05/30 01:24:57;;;;;;;;;;;;;;;7.48;56.81152;101461.9;;;;-79
2022/05/30 01:25:15;;;;;;;2.5;0.9;;;;;;;;;;;;;-83
2022/05/30 01:29:55;;;;;;;;;;;;;;;7.45;56.91797;101466.2;;;;-83
2022/05/30 01:34:52;;;;;;;;;;;;;;;7.42;56.98047;101460.1;;;;-82
2022/05/30 01:39:50;;;;;;;;;;;;;;;7.4;57.17578;101461.7;;;;-84
2022/05/30 01:44:51;;;;;;;;;;;;;;;7.35;57.07031;101454.8;;;;-81
2022/05/30 01:49:55;;;;;;;;;;;;;;;7.3;57.12012;101452.7;;;;-83
2022/05/30 01:54:50;;;;;;;;;;;;;;;7.28;57.16211;101453;;;;-78
2022/05/30 01:55:09;;;;;;;1.3;0.6;;;;;;;;;;;;;-83
2022/05/30 01:59:51;;;;;;;;;;;;;;;7.28;57.19336;101451.4;;;;-83
2022/05/30 02:04:52;;;;;;;;;;;;;;;7.29;57.2168;101447.2;;;;-81
2022/05/30 02:09:52;;;;;;;;;;;;;;;7.26;57.31445;101446.2;;;;-82
2022/05/30 02:14:53;;;;;;;;;;;;;;;7.29;57.28418;101441.8;;;;-82
2022/05/30 02:19:51;;;;;;;;;;;;;;;7.33;57.30078;101436.7;;;;-84
2022/05/30 02:24:51;;;;;;;;;;;;;;;7.37;57.19434;101429.9;;;;-84
2022/05/30 02:25:08;;;;;;;1.5;0.8;;;;;;;;;;;;;-83
2022/05/30 02:29:56;;;;;;;;;;;;;;;7.41;57.11328;101432.8;;;;-82
2022/05/30 02:39:53;;;;;;;;;;;;;;;7.49;57.58789;101430.8;;;;-84
2022/05/30 02:44:50;;;;;;;;;;;;;;;7.54;57.40527;101427.5;;;;-81
2022/05/30 02:49:52;;;;;;;;;;;;;;;7.54;57.28418;101424.8;;;;-82
2022/05/30 02:54:51;;;;;;;;;;;;;;;7.52;57.21484;101423;;;;-84
2022/05/30 02:55:09;;;;;;;1.4;0.7;;;;;;;;;;;;;-82
2022/05/30 02:59:50;;;;;;;;;;;;;;;7.53;57.61328;101423.5;;;;-83
2022/05/30 03:04:51;;;;;;;;;;;;;;;7.51;57.29102;101424.3;;;;-82
2022/05/30 03:09:51;;;;;;;;;;;;;;;7.49;57.24414;101423.5;;;;-84
2022/05/30 03:14:51;;;;;;;;;;;;;;;7.49;57.30957;101419.9;;;;-82
2022/05/30 03:19:52;;;;;;;;;;;;;;;7.51;57.1582;101419.2;;;;-81
2022/05/30 03:24:54;;;;;;;;;;;;;;;7.53;57.18262;101420.9;;;;-84
2022/05/30 03:25:09;;;;;;;1.4;0.6;;;;;;;;;;;;;-81
2022/05/30 03:29:50;;;;;;;;;;;;;;;7.59;57.06934;101431.3;;;;-83
2022/05/30 03:34:51;;;;;;;;;;;;;;;7.66;57.25488;101437.2;;;;-81
2022/05/30 03:39:51;;;;;;;;;;;;;;;7.72;57.20703;101433.6;;;;-81
2022/05/30 03:44:56;;;;;;;;;;;;;;;7.8;57.21875;101432.4;;;;-82
2022/05/30 03:49:51;;;;;;;;;;;;;;;7.89;57.07617;101431.6;;;;-81
2022/05/30 03:54:52;;;;;;;;;;;;;;;8;57.02246;101427.9;;;;-82
2022/05/30 03:55:12;;;;;;;1.9;0.6;;;;;;;;;;;;;-81
2022/05/30 03:59:53;;;;;;;;;;;;;;;8.07;57.03223;101418.8;;;;-83
2022/05/30 04:04:50;;;;;;;;;;;;;;;8.16;57.00098;101419.2;;;;-83
2022/05/30 04:09:50;;;;;;;;;;;;;;;8.21;56.86328;101410.5;;;;-82
2022/05/30 04:14:55;;;;;;;;;;;;;;;8.23;56.97754;101402.5;;;;-83
2022/05/30 04:19:50;;;;;;;;;;;;;;;8.24;56.91113;101398.4;;;;-82
2022/05/30 04:24:50;;;;;;;;;;;;;;;8.22;56.99707;101397.8;;;;-80
2022/05/30 04:25:09;;;;;;;2.4;0.6;;;;;;;;;;;;;-81
2022/05/30 04:29:59;;;;;;;;;;;;;;;8.22;56.99707;101400.6;;;;-84
2022/05/30 04:34:51;;;;;;;;;;;;;;;8.22;56.77539;101403.4;;;;-81
2022/05/30 04:39:52;;;;;;;;;;;;;;;8.22;56.78516;101406;;;;-81
2022/05/30 04:44:52;;;;;;;;;;;;;;;8.22;56.70801;101407.8;;;;-82
2022/05/30 04:49:52;;;;;;;;;;;;;;;8.23;56.83398;101407.1;;;;-84
2022/05/30 04:54:50;;;;;;;;;;;;;;;8.26;56.7373;101409.2;;;;-82
2022/05/30 04:55:09;;;;;;;2.6;0.6;;;;;;;;;;;;;-81
2022/05/30 04:59:51;;;;;;;;;;;;;;;8.33;56.73535;101402;;;;-79
2022/05/30 05:04:51;;;;;;;;;;;;;;;8.38;56.70898;101404.5;;;;-83
2022/05/30 05:10:03;;;;;;;;;;;;;;;8.45;57.02637;101410.8;;;;-81
2022/05/30 05:14:51;;;;;;;;;;;;;;;8.52;57.20313;101410.6;;;;-82
2022/05/30 05:19:51;;;;;;;;;;;;;;;8.68;57.72266;101413.7;;;;-83
2022/05/30 05:24:50;;;;;;;;;;;;;;;9.18;57.43555;101415.8;;;;-82
2022/05/30 05:25:10;;;;;;;1.5;0.6;;;;;;;;;;;;;-83
2022/05/30 05:29:50;;;;;;;;;;;;;;;9.99;56.18457;101410.2;;;;-82
2022/05/30 05:34:50;;;;;;;;;;;;;;;10.87;54.60156;101417.7;;;;-81
2022/05/30 05:39:51;;;;;;;;;;;;;;;11.72;53.17676;101416.1;;;;-81
2022/05/30 05:44:53;;;;;;;;;;;;;;;12.57;51.95801;101417.4;;;;-81
2022/05/30 05:49:52;;;;;;;;;;;;;;;13.41;50.59668;101417.5;;;;-83
2022/05/30 05:54:50;;;;;;;;;;;;;;;14.15;49.58984;101416.3;;;;-82
2022/05/30 05:55:09;;;;;;;1.6;0.7;;;;;;;;;;;;;-83
2022/05/30 05:59:50;;;;;;;;;;;;;;;14.78;48.54492;101416.4;;;;-80
2022/05/30 06:04:53;;;;;;;;;;;;;;;15.34;47.5;101418.1;;;;-82
2022/05/30 06:09:51;;;;;;;;;;;;;;;15.82;47.02051;101422.7;;;;-81
2022/05/30 06:14:51;;;;;;;;;;;;;;;16.26;46.42188;101422.2;;;;-82
2022/05/30 06:19:50;;;;;;;;;;;;;;;16.67;45.66113;101423.4;;;;-75
2022/05/30 06:24:50;;;;;;;;;;;;;;;17.07;45.49707;101423.9;;;;-76
2022/05/30 06:25:11;;;;;;;1.9;0.5;;;;;;;;;;;;;-76
2022/05/30 06:29:51;;;;;;;;;;;;;;;17.47;44.94629;101430.2;;;;-75
2022/05/30 06:34:51;;;;;;;;;;;;;;;17.37;44.98145;101434.3;;;;-76
2022/05/30 06:39:50;;;;;;;;;;;;;;;17.06;46.22168;101429.3;;;;-76
2022/05/30 06:44:50;;;;;;;;;;;;;;;16.87;46.70117;101427.3;;;;-76
2022/05/30 06:49:50;;;;;;;;;;;;;;;16.8;46.68164;101431.9;;;;-74
2022/05/30 06:54:50;;;;;;;;;;;;;;;16.64;47.21973;101427.8;;;;-74
2022/05/30 06:55:13;;;;;;;3.3;0.5;;;;;;;;;;;;;-75
2022/05/30 06:59:52;;;;;;;;;;;;;;;16.5;47.38672;101436;;;;-75
2022/05/30 07:04:51;;;;;;;;;;;;;;;16.34;47.44824;101436.7;;;;-75
2022/05/30 07:09:50;;;;;;;;;;;;;;;16.14;47.95996;101443.6;;;;-76
2022/05/30 07:14:50;;;;;;;;;;;;;;;15.93;48.24219;101446.7;;;;-76
2022/05/30 07:19:53;;;;;;;;;;;;;;;15.8;48.4082;101444.4;;;;-81
2022/05/30 07:24:52;;;;;;;;;;;;;;;15.77;48.62988;101448.1;;;;-81
2022/05/30 07:25:15;;;;;;;2.1;0.5;;;;;;;;;;;;;-81
2022/05/30 07:29:59;;;;;;;;;;;;;;;15.84;48.72949;101449.9;;;;-82
2022/05/30 07:34:56;;;;;;;;;;;;;;;15.96;48.5957;101451.2;;;;-81
2022/05/30 07:39:54;;;;;;;;;;;;;;;16.06;48.34668;101442.7;;;;-83
2022/05/30 07:44:51;;;;;;;;;;;;;;;16.09;48.23633;101438.3;;;;-81
2022/05/30 07:49:51;;;;;;;;;;;;;;;16.18;48.20117;101442.9;;;;-83
2022/05/30 07:54:50;;;;;;;;;;;;;;;16.26;48.0293;101441.1;;;;-82
2022/05/30 07:55:16;;;;;;;0.8;0.4;;;;;;;;;;;;;-82
2022/05/30 07:59:51;;;;;;;;;;;;;;;16.38;48.07617;101441.7;;;;-82
2022/05/30 08:04:50;;;;;;;;;;;;;;;16.66;47.63086;101443.8;;;;-82
2022/05/30 08:09:50;;;;;;;;;;;;;;;17.01;46.9873;101441.5;;;;-82
2022/05/30 08:14:50;;;;;;;;;;;;;;;17.49;46.54004;101444.8;;;;-83
2022/05/30 08:19:52;;;;;;;;;;;;;;;18.06;45.49609;101447.7;;;;-81
2022/05/30 08:24:52;;;;;;;;;;;;;;;18.4;44.58691;101441.8;;;;-83
2022/05/30 08:25:21;;;;;;;1.7;0.5;;;;;;;;;;;;;-81
2022/05/30 08:29:51;;;;;;;;;;;;;;;18.54;44.20215;101445.2;;;;-80
2022/05/30 08:34:51;;;;;;;;;;;;;;;18.65;44.18945;101445.8;;;;-82
2022/05/30 08:44:50;;;;;;;;;;;;;;;19;43.65527;101437.6;;;;-82
2022/05/30 08:49:53;;;;;;;;;;;;;;;19.23;43.24414;101438;;;;-82
2022/05/30 08:54:58;;;;;;;;;;;;;;;19.48;42.81055;101438.4;;;;-85
2022/05/30 08:55:26;;;;;;;0.9;0.4;;;;;;;;;;;;;-81
2022/05/30 09:00:00;;;;;;;;;;;;;;;19.76;42.35938;101444.1;;;;-83
2022/05/30 09:04:54;;;;;;;;;;;;;;;19.97;42.02441;101447.2;;;;-82
2022/05/30 09:09:56;;;;;;;;;;;;;;;20.09;41.58984;101455.3;;;;-82
2022/05/30 09:14:52;;;;;;;;;;;;;;;20.1;41.23633;101459.3;;;;-83
2022/05/30 09:19:51;;;;;;;;;;;;;;;19.89;41.2168;101455.8;;;;-81
2022/05/30 09:29:54;;;;;;;;;;;;;;;19.27;42.42676;101456.2;;;;-85
2022/05/30 09:34:53;;;;;;;;;;;;;;;19.02;42.8125;101462.1;;;;-84
2022/05/30 09:39:54;;;;;;;;;;;;;;;18.82;43.15918;101461.3;;;;-86
2022/05/30 09:44:53;;;;;;;;;;;;;;;18.63;43.37891;101464.9;;;;-83
2022/05/30 09:49:54;;;;;;;;;;;;;;;18.51;43.62988;101466;;;;-83
2022/05/30 09:54:52;;;;;;;;;;;;;;;18.35;43.8418;101467.5;;;;-84
2022/05/30 09:55:37;;;;;;;2.3;0.8;;;;;;;;;;;;;-84
2022/05/30 09:59:55;;;;;;;;;;;;;;;18.29;43.9834;101466.1;;;;-86
2022/05/30 10:04:53;;;;;;;;;;;;;;;18.32;43.99805;101462.7;;;;-84
2022/05/30 10:10:00;;;;;;;;;;;;;;;18.39;44.02734;101466;;;;-86
2022/05/30 10:14:51;;;;;;;;;;;;;;;18.55;43.86133;101465.6;;;;-84
2022/05/30 10:19:52;;;;;;;;;;;;;;;18.68;43.58984;101473.3;;;;-82
2022/05/30 10:29:58;;;;;;;;;;;;;;;19.06;43.04492;101479.6;;;;-84
2022/05/30 10:35:06;;;;;;;;;;;;;;;19.34;42.87891;101482.2;;;;-84
2022/05/30 10:40:01;;;;;;;;;;;;;;;19.66;42.45117;101479.2;;;;-84
2022/05/30 10:44:54;;;;;;;;;;;;;;;20.04;42.41895;101482.3;;;;-83
2022/05/30 10:49:53;;;;;;;;;;;;;;;20.45;41.85156;101483.3;;;;-83
2022/05/30 10:54:53;;;;;;;;;;;;;;;20.82;41.74902;101488.7;;;;-83
2022/05/30 10:55:29;;;;;;;2.7;1;;;;;;;;;;;;;-82
2022/05/30 10:59:58;;;;;;;;;;;;;;;21.14;41.50391;101491.6;;;;-83
2022/05/30 11:04:57;;;;;;;;;;;;;;;21.34;40.96191;101493.9;;;;-82
2022/05/30 11:10:01;;;;;;;;;;;;;;;21.5;40.28711;101496.4;;;;-84
2022/05/30 11:14:57;;;;;;;;;;;;;;;21.61;40.12402;101502.4;;;;-84
2022/05/30 11:20:06;;;;;;;;;;;;;;;21.62;39.99902;101504;;;;-85
2022/05/30 11:24:58;;;;;;;;;;;;;;;21.59;40.07715;101510.2;;;;-82
2022/05/30 11:25:39;;;;;;;2.7;0.7;;;;;;;;;;;;;-84
2022/05/30 11:30:15;;;;;;;;;;;;;;;21.53;40.05957;101512.2;;;;-84
2022/05/30 11:35:07;;;;;;;;;;;;;;;21.48;40.28418;101507.1;;;;-84
2022/05/30 11:40:01;;;;;;;;;;;;;;;21.48;40.22754;101507;;;;-84
2022/05/30 11:45:02;;;;;;;;;;;;;;;21.51;40.20703;101513.1;;;;-82
2022/05/30 11:49:59;;;;;;;;;;;;;;;21.53;40.26758;101514.8;;;;-83
2022/05/30 11:55:04;;;;;;;;;;;;;;;21.55;40.30273;101510.7;;;;-83
2022/05/30 11:55:35;;;;;;;2;0.8;;;;;;;;;;;;;-83
2022/05/30 12:00:05;;;;;;;;;;;;;;;21.53;39.99023;101511.8;;;;-83
2022/05/30 12:05:08;;;;;;;;;;;;;;;21.49;40.10254;101512.3;;;;-84
2022/05/30 12:09:59;;;;;;;;;;;;;;;21.42;39.94727;101508.6;;;;-82
2022/05/30 12:15:08;;;;;;;;;;;;;;;21.37;39.97754;101512.9;;;;-82
2022/05/30 12:24:51;;;;;;;;;;;;;;;21.24;39.77051;101513;;;;-83
2022/05/30 12:25:52;;;;;;;2.9;0.9;;;;;;;;;;;;;-84
2022/05/30 12:29:54;;;;;;;;;;;;;;;21.25;39.94238;101510.9;;;;-84
2022/05/30 12:35:05;;;;;;;;;;;;;;;21.29;39.93555;101508.9;;;;-84
2022/05/30 12:39:57;;;;;;;;;;;;;;;21.41;40.39355;101507;;;;-84
2022/05/30 12:45:01;;;;;;;;;;;;;;;21.61;40.7207;101503.8;;;;-86
2022/05/30 12:49:57;;;;;;;;;;;;;;;21.77;40.24219;101505.7;;;;-84
2022/05/30 12:55:01;;;;;;;;;;;;;;;21.88;40.50488;101502.4;;;;-83
2022/05/30 12:55:40;;;;;;;2;0.7;;;;;;;;;;;;;-84
2022/05/30 13:00:14;;;;;;;;;;;;;;;22.02;40.37988;101498.7;;;;-83
2022/05/30 13:04:59;;;;;;;;;;;;;;;22.1;40.14551;101501.8;;;;-82
2022/05/30 13:09:57;;;;;;;;;;;;;;;22.16;39.72559;101499.8;;;;-83
2022/05/30 13:15:00;;;;;;;;;;;;;;;22.19;39.45215;101502.4;;;;-84
2022/05/30 13:19:53;;;;;;;;;;;;;;;22.23;39.69629;101501.2;;;;-84
2022/05/30 13:24:56;;;;;;;;;;;;;;;22.28;40.02441;101497.9;;;;-83
2022/05/30 13:25:42;;;;;;;1.6;0.8;;;;;;;;;;;;;-84
2022/05/30 13:29:51;;;;;;;;;;;;;;;22.41;40.10449;101497.7;;;;-83
2022/05/30 13:34:54;;;;;;;;;;;;;;;22.54;40.04688;101495.4;;;;-82
2022/05/30 13:39:53;;;;;;;;;;;;;;;22.61;39.19043;101492.1;;;;-84
2022/05/30 13:44:50;;;;;;;;;;;;;;;22.69;39.35742;101491.3;;;;-84
2022/05/30 13:49:56;;;;;;;;;;;;;;;22.78;38.67578;101495.4;;;;-83
2022/05/30 13:54:52;;;;;;;;;;;;;;;22.82;38.64355;101491.3;;;;-83
2022/05/30 13:55:55;;;;;;;2;0.9;;;;;;;;;;;;;-83
2022/05/30 13:59:55;;;;;;;;;;;;;;;22.89;38.99512;101491;;;;-84
2022/05/30 14:04:51;;;;;;;;;;;;;;;22.92;38.09863;101489;;;;-84
2022/05/30 14:09:53;;;;;;;;;;;;;;;22.91;38.69824;101492.5;;;;-84
2022/05/30 14:14:52;;;;;;;;;;;;;;;22.85;38.62402;101488.8;;;;-83
2022/05/30 14:19:53;;;;;;;;;;;;;;;22.84;39.40625;101485.9;;;;-84
2022/05/30 14:26:10;;;;;;;;;;;;;;;;;;;;;
2022/05/30 14:37:32;;;;;;;;;;;;;;;22.75;38.83398;101476.1;;;;-83
2022/05/30 14:42:31;;;;;;;;;;;;;;;22.89;38.99512;101475.2;;;;-83
2022/05/30 14:47:30;;;;;;;;;;;;;;;23.11;37.89746;101472.4;;;;-82
2022/05/30 14:52:29;;;;;;;;;;;;;;;23.41;36.86133;101479.5;;;;-83
2022/05/30 14:56:02;;;;;;;2.2;0.9;;;;;;;;;;;;;-85
2022/05/30 14:57:22;;;;;;;;;;;;;;;23.62;37.47754;101475.6;;;;-84
2022/05/30 15:07:30;;;;;;;;;;;;;;;23.71;38.39844;101476.2;;;;-82
2022/05/30 15:12:34;;;;;;;;;;;;;;;23.63;38.26465;101471.4;;;;-81
2022/05/30 15:26:04;;;;;;;2.1;0.8;;;;;;;;;;;;;-82
2022/05/30 15:27:28;;;;;;;;;;;;;;;23.62;37.07324;101466.3;;;;-83
2022/05/30 15:32:27;;;;;;;;;;;;;;;23.45;37.02637;101469.1;;;;-84
2022/05/30 15:37:22;;;;;;;;;;;;;;;23.27;37.28809;101470.8;;;;-85
2022/05/30 15:47:28;;;;;;;;;;;;;;;22.93;37.62793;101468.1;;;;-82
2022/05/30 15:52:27;;;;;;;;;;;;;;;22.77;37.71777;101460.6;;;;-83
2022/05/30 15:57:27;;;;;;;;;;;;;;;22.67;37.95117;101460.1;;;;-83
2022/05/30 16:02:23;;;;;;;;;;;;;;;22.67;38.21582;101453.3;;;;-80
2022/05/30 16:07:23;;;;;;;;;;;;;;;22.7;38.58789;101455.6;;;;-82
2022/05/30 16:12:26;;;;;;;;;;;;;;;22.71;38.69238;101452.4;;;;-83
2022/05/30 16:17:33;;;;;;;;;;;;;;;22.66;38.52734;101447.3;;;;-82
2022/05/30 16:22:26;;;;;;;;;;;;;;;22.54;38.43555;101446.8;;;;-83
2022/05/30 16:26:03;;;;;;;2.4;0.8;;;;;;;;;;;;;-82
2022/05/30 16:27:24;;;;;;;;;;;;;;;22.39;38.58398;101444.3;;;;-81
2022/05/30 16:32:28;;;;;;;;;;;;;;;22.22;38.60352;101454.2;;;;-80
2022/05/30 16:37:25;;;;;;;;;;;;;;;22;38.71094;101453;;;;-81
2022/05/30 16:42:27;;;;;;;;;;;;;;;21.76;38.96582;101454.8;;;;-82
2022/05/30 16:47:25;;;;;;;;;;;;;;;21.44;39.24902;101465.1;;;;-80
2022/05/30 16:52:25;;;;;;;;;;;;;;;21.12;39.73633;101460.8;;;;-81
2022/05/30 16:56:03;;;;;;;3;1;;;;;;;;;;;;;-83
2022/05/30 16:57:23;;;;;;;;;;;;;;;20.8;40.22363;101459.2;;;;-84
2022/05/30 17:02:22;;;;;;;;;;;;;;;20.51;40.54102;101463.7;;;;-83
2022/05/30 17:07:23;;;;;;;;;;;;;;;20.23;40.83594;101470.6;;;;-82
2022/05/30 17:12:48;;;;;;;;;;;;;;;19.96;40.78906;101463.9;;;;-86
2022/05/30 17:17:22;;;;;;;;;;;;;;;19.68;41.20898;101470.4;;;;-82
2022/05/30 17:22:22;;;;;;;;;;;;;;;19.44;41.25488;101471.6;;;;-80
2022/05/30 17:26:05;;;;;;;2.6;1.1;;;;;;;;;;;;;-82
2022/05/30 17:32:29;;;;;;;;;;;;;;;18.99;41.55469;101469.9;;;;-84
2022/05/30 17:37:22;;;;;;;;;;;;;;;18.8;41.68555;101470.8;;;;-82
2022/05/30 17:42:23;;;;;;;;;;;;;;;18.62;41.62305;101473.1;;;;-82
2022/05/30 17:47:31;;;;;;;;;;;;;;;18.48;41.68945;101474.5;;;;-82
2022/05/30 17:52:25;;;;;;;;;;;;;;;18.34;41.77832;101473.6;;;;-82
2022/05/30 17:56:09;;;;;;;2.7;1.1;;;;;;;;;;;;;-83
2022/05/30 17:57:23;;;;;;;;;;;;;;;18.24;41.83887;101477.5;;;;-83
2022/05/30 18:02:24;;;;;;;;;;;;;;;18.18;41.94629;101477.1;;;;-83
2022/05/30 18:07:31;;;;;;;;;;;;;;;18.15;42.08008;101478;;;;-82
2022/05/30 18:12:29;;;;;;;;;;;;;;;18.14;41.96582;101475.5;;;;-84
2022/05/30 18:17:24;;;;;;;;;;;;;;;18.16;42.0918;101472.7;;;;-83
2022/05/30 18:22:33;;;;;;;;;;;;;;;18.15;42.20508;101476.3;;;;-84
2022/05/30 18:26:10;;;;;;;2.9;1.3;;;;;;;;;;;;;-83
2022/05/30 18:27:22;;;;;;;;;;;;;;;18.1;42.39355;101470.8;;;;-83
2022/05/30 18:32:31;;;;;;;;;;;;;;;17.99;42.40625;101468.2;;;;-82
2022/05/30 18:37:29;;;;;;;;;;;;;;;17.86;42.50781;101469.4;;;;-84
2022/05/30 18:42:31;;;;;;;;;;;;;;;17.75;42.51953;101468.1;;;;-82
2022/05/30 18:47:24;;;;;;;;;;;;;;;17.65;42.56738;101474.8;;;;-80
2022/05/30 18:52:22;;;;;;;;;;;;;;;17.52;42.79297;101480.2;;;;-83
2022/05/30 18:56:17;;;;;;;2.6;1;;;;;;;;;;;;;-82
2022/05/30 18:57:25;;;;;;;;;;;;;;;17.38;42.84766;101474.8;;;;-81
2022/05/30 19:02:25;;;;;;;;;;;;;;;17.22;42.92383;101467.4;;;;-81
2022/05/30 19:07:26;;;;;;;;;;;;;;;17.06;43.15723;101461.3;;;;-81
2022/05/30 19:12:24;;;;;;;;;;;;;;;16.91;43.33594;101471.5;;;;-82
2022/05/30 19:17:31;;;;;;;;;;;;;;;16.72;43.42969;101473.2;;;;-82
2022/05/30 19:22:26;;;;;;;;;;;;;;;16.54;43.62793;101480.8;;;;-82
2022/05/30 19:26:36;;;;;;;2.3;1.1;;;;;;;;;;;;;-83
2022/05/30 19:27:23;;;;;;;;;;;;;;;16.33;43.82324;101487.1;;;;-83
2022/05/30 19:32:23;;;;;;;;;;;;;;;16.13;44.03125;101486;;;;-84
2022/05/30 19:37:22;;;;;;;;;;;;;;;15.94;44.42969;101488;;;;-83
2022/05/30 19:42:22;;;;;;;;;;;;;;;15.72;44.71289;101495.8;;;;-84
2022/05/30 19:47:25;;;;;;;;;;;;;;;15.52;44.80566;101494.8;;;;-83
2022/05/30 19:52:25;;;;;;;;;;;;;;;15.33;45.05859;101500.7;;;;-82
2022/05/30 19:56:22;;;;;;;1.7;1;;;;;;;;;;;;;-83
2022/05/30 19:57:24;;;;;;;;;;;;;;;15.14;45.27539;101508.2;;;;-82
2022/05/30 20:02:28;;;;;;;;;;;;;;;14.95;45.65039;101516.8;;;;-83
2022/05/30 20:07:23;;;;;;;;;;;;;;;14.75;45.94629;101519.5;;;;-81
2022/05/30 20:12:22;;;;;;;;;;;;;;;14.56;46.19727;101520;;;;-82
2022/05/30 20:17:23;;;;;;;;;;;;;;;14.37;46.4707;101522.6;;;;-82
2022/05/30 20:22:24;;;;;;;;;;;;;;;14.2;46.72363;101526.5;;;;-83
2022/05/30 20:26:19;;;;;;;2.3;1.1;;;;;;;;;;;;;-84
2022/05/30 20:27:22;;;;;;;;;;;;;;;14.05;47.1123;101531.1;;;;-84
2022/05/30 20:32:24;;;;;;;;;;;;;;;13.88;47.24023;101535.8;;;;-82
2022/05/30 20:37:23;;;;;;;;;;;;;;;13.72;47.56152;101539.6;;;;-82
2022/05/30 20:47:23;;;;;;;;;;;;;;;13.44;47.8916;101542.6;;;;-82
2022/05/30 20:52:23;;;;;;;;;;;;;;;13.3;48.19043;101544;;;;-82
2022/05/30 20:56:20;;;;;;;1.7;1.1;;;;;;;;;;;;;-81
2022/05/30 20:57:22;;;;;;;;;;;;;;;13.19;48.36914;101544.7;;;;-83
2022/05/30 21:02:22;;;;;;;;;;;;;;;13.06;48.55664;101543.6;;;;-83
2022/05/30 21:07:22;;;;;;;;;;;;;;;12.95;48.80273;101543.4;;;;-81
2022/05/30 21:12:22;;;;;;;;;;;;;;;12.87;49.08594;101543.4;;;;-84
2022/05/30 21:17:23;;;;;;;;;;;;;;;12.79;49.03223;101539.4;;;;-80
2022/05/30 21:22:23;;;;;;;;;;;;;;;12.71;49.14551;101534.3;;;;-81
2022/05/30 21:26:21;;;;;;;2.5;1.3;;;;;;;;;;;;;-81
2022/05/30 21:27:22;;;;;;;;;;;;;;;12.61;49.28223;101535.7;;;;-81
2022/05/30 21:32:27;;;;;;;;;;;;;;;12.52;49.53027;101534.2;;;;-81
2022/05/30 21:37:23;;;;;;;;;;;;;;;12.44;49.56543;101538.1;;;;-80
2022/05/30 21:42:22;;;;;;;;;;;;;;;12.34;49.77734;101541.9;;;;-81
2022/05/30 21:47:22;;;;;;;;;;;;;;;12.24;49.77734;101536.6;;;;-83
2022/05/30 21:52:22;;;;;;;;;;;;;;;12.14;49.92285;101533.9;;;;-82
2022/05/30 21:56:22;;;;;;;2.8;1.3;;;;;;;;;;;;;-81
2022/05/30 22:02:22;;;;;;;;;;;;;;;11.98;50.08301;101542.7;;;;-80
2022/05/30 22:07:22;;;;;;;;;;;;;;;11.89;50.23047;101541.9;;;;-81
2022/05/30 22:12:22;;;;;;;;;;;;;;;11.83;50.21289;101540.8;;;;-82
2022/05/30 22:17:23;;;;;;;;;;;;;;;11.75;50.25977;101538.4;;;;-80
2022/05/30 22:22:22;;;;;;;;;;;;;;;11.66;50.42871;101533.6;;;;-82
2022/05/30 22:26:22;;;;;;;2.9;1.4;;;;;;;;;;;;;-81
2022/05/30 22:27:21;;;;;;;;;;;;;;;11.6;50.51074;101534.1;;;;-82
2022/05/30 22:32:28;;;;;;;;;;;;;;;11.55;50.59375;101532.4;;;;-80
2022/05/30 22:37:23;;;;;;;;;;;;;;;11.5;50.76758;101531.5;;;;-81
2022/05/30 22:42:31;;;;;;;;;;;;;;;11.43;51.07227;101531.2;;;;-82
2022/05/30 22:47:22;;;;;;;;;;;;;;;11.37;50.69629;101523.8;;;;-82
2022/05/30 22:52:24;;;;;;;;;;;;;;;11.33;50.76953;101527.9;;;;-84
2022/05/30 22:56:23;;;;;;;2.2;1.1;;;;;;;;;;;;;-81
2022/05/30 22:57:22;;;;;;;;;;;;;;;11.29;50.83301;101523.1;;;;-80
2022/05/30 23:02:24;;;;;;;;;;;;;;;11.25;50.82813;101528.4;;;;-81
2022/05/30 23:07:22;;;;;;;;;;;;;;;11.17;51.02051;101527.2;;;;-81
2022/05/30 23:12:22;;;;;;;;;;;;;;;11.12;51.09277;101527.4;;;;-82
2022/05/30 23:17:23;;;;;;;;;;;;;;;11.07;51.05273;101526.3;;;;-82
2022/05/30 23:22:22;;;;;;;;;;;;;;;11.01;51.1582;101524.4;;;;-81
2022/05/30 23:26:24;;;;;;;2;1.1;;;;;;;;;;;;;-81
2022/05/30 23:27:22;;;;;;;;;;;;;;;10.96;51.18457;101521.9;;;;-81
2022/05/30 23:32:23;;;;;;;;;;;;;;;10.87;51.12988;101521.4;;;;-80
2022/05/30 23:37:23;;;;;;;;;;;;;;;10.78;51.29785;101517.5;;;;-82
2022/05/30 23:47:24;;;;;;;;;;;;;;;10.67;51.47461;101511.3;;;;-82
2022/05/30 23:52:23;;;;;;;;;;;;;;;10.57;51.46387;101513;;;;-81
2022/05/30 23:56:24;;;;;;;2;1.1;;;;;;;;;;;;;-81
2022/05/30 23:57:22;;;;;;;;;;;;;;;10.54;51.42676;101506.8;;;;-81
